Time;durP1;ratioP1;P1;durP2;ratioP2;P2;SDS_P1;SDS_P2;PMS_P1;PMS_P2;Temp;Humidity;BMP_temperature;BMP_pressure;BME280_temperature;BME280_humidity;BME280_pressure;Samples;Min_cycle;Max_cycle;Signal;HPM_P1;HPM_P2
2021/08/19 00:02:14;;;;;;;;;;;15.10;92.20;;;;;;5029728;28;20057;-81
2021/08/19 00:04:41;;;;;;;6.68;2.80;;;15.00;92.20;;;;;;5028989;28;19955;-80
2021/08/19 00:07:07;;;;;;;5.45;2.75;;;15.00;92.30;;;;;;5030330;28;20053;-78
2021/08/19 00:09:34;;;;;;;5.55;2.25;;;14.90;92.60;;;;;;5030122;28;20499;-78
2021/08/19 00:12:00;;;;;;;7.18;2.90;;;15.00;92.80;;;;;;5028994;28;20419;-78
2021/08/19 00:14:26;;;;;;;9.85;3.38;;;15.10;92.90;;;;;;4996080;28;20037;-78
2021/08/19 00:16:52;;;;;;;6.43;2.63;;;15.20;92.80;;;;;;5028589;28;20431;-80
2021/08/19 00:19:18;;;;;;;5.38;2.80;;;15.40;92.80;;;;;;5029810;28;20029;-79
2021/08/19 00:21:43;;;;;;;5.93;2.78;;;15.50;92.80;;;;;;5028683;28;20033;-78
2021/08/19 00:24:09;;;;;;;6.85;3.28;;;15.50;92.70;;;;;;5028759;28;20086;-79
2021/08/19 00:26:35;;;;;;;4.18;2.28;;;15.60;92.70;;;;;;5028712;28;20373;-80
2021/08/19 00:29:00;;;;;;;6.97;2.28;;;15.70;92.70;;;;;;5028500;28;20029;-79
2021/08/19 00:31:26;;;;;;;5.88;2.25;;;15.70;92.70;;;;;;5028654;28;20056;-79
2021/08/19 00:33:52;;;;;;;5.70;2.40;;;15.80;92.60;;;;;;4995766;28;20028;-79
2021/08/19 00:36:18;;;;;;;4.63;2.00;;;15.90;92.60;;;;;;5028722;28;20037;-81
2021/08/19 00:38:45;;;;;;;4.38;2.10;;;15.90;92.60;;;;;;5029480;28;20096;-79
2021/08/19 00:41:11;;;;;;;4.78;2.30;;;16.00;92.60;;;;;;5028392;28;20029;-78
2021/08/19 00:43:38;;;;;;;5.53;2.08;;;16.00;92.50;;;;;;5029471;28;20022;-79
2021/08/19 00:46:27;;;;;;;5.18;2.13;;;16.10;92.40;;;;;;5011855;28;20167;-79
2021/08/19 00:49:03;;;;;;;4.68;1.70;;;16.20;92.30;;;;;;5028144;28;20491;-80
2021/08/19 00:51:31;;;;;;;4.17;2.10;;;16.20;92.00;;;;;;5028373;28;20488;-78
2021/08/19 00:53:57;;;;;;;6.72;1.90;;;16.20;91.90;;;;;;5027985;28;20105;-81
2021/08/19 00:56:23;;;;;;;;;;;16.30;91.80;;;;;;5029819;28;20033;-80
2021/08/19 00:58:49;;;;;;;4.35;2.10;;;16.30;91.70;;;;;;5029308;28;19920;-79
2021/08/19 01:01:15;;;;;;;3.90;1.88;;;16.30;91.60;;;;;;4995306;28;20388;-79
2021/08/19 01:03:41;;;;;;;4.82;2.08;;;16.30;91.60;;;;;;5027937;28;20029;-79
2021/08/19 01:06:07;;;;;;;3.95;1.83;;;16.20;91.50;;;;;;5028626;28;20479;-79
2021/08/19 01:08:34;;;;;;;4.13;1.80;;;16.30;91.50;;;;;;5027508;28;20036;-79
2021/08/19 01:11:03;;;;;;;4.55;2.03;;;16.30;91.50;;;;;;5027871;28;20033;-79
2021/08/19 01:13:29;;;;;;;5.65;2.25;;;16.30;91.40;;;;;;5027779;28;20025;-81
2021/08/19 01:15:54;;;;;;;4.55;2.10;;;16.20;91.60;;;;;;5011149;28;20140;-80
2021/08/19 01:18:20;;;;;;;5.10;1.90;;;16.20;91.40;;;;;;5011061;28;20033;-79
2021/08/19 01:20:46;;;;;;;4.88;2.20;;;16.20;91.40;;;;;;5028847;28;20026;-81
2021/08/19 01:23:12;;;;;;;4.38;1.98;;;16.20;91.40;;;;;;5010947;28;20393;-80
2021/08/19 01:25:39;;;;;;;6.13;1.83;;;16.30;91.40;;;;;;5027734;28;20041;-79
2021/08/19 01:28:04;;;;;;;4.10;1.80;;;16.20;91.30;;;;;;5027404;28;20498;-78
2021/08/19 01:30:30;;;;;;;4.35;2.08;;;16.30;91.30;;;;;;5027523;28;20030;-79
2021/08/19 01:32:56;;;;;;;4.68;1.83;;;16.30;91.30;;;;;;5027495;28;20029;-78
2021/08/19 01:35:23;;;;;;;4.95;1.73;;;16.30;91.30;;;;;;5027381;28;20488;-81
2021/08/19 01:37:49;;;;;;;4.53;1.80;;;16.30;91.30;;;;;;5028615;28;20555;-78
2021/08/19 01:40:15;;;;;;;5.18;1.85;;;16.30;91.30;;;;;;5027315;28;20117;-79
2021/08/19 01:42:42;;;;;;;;;;;16.30;91.30;;;;;;5027836;28;20028;-81
2021/08/19 01:45:09;;;;;;;3.15;1.58;;;16.30;91.30;;;;;;5027182;28;19924;-80
2021/08/19 01:47:35;;;;;;;3.22;1.42;;;16.30;91.20;;;;;;5027135;28;20037;-78
2021/08/19 01:50:00;;;;;;;4.60;1.75;;;16.40;91.20;;;;;;5028280;28;20100;-80
2021/08/19 01:52:26;;;;;;;4.65;2.08;;;16.40;91.20;;;;;;4994306;28;20044;-77
2021/08/19 01:54:51;;;;;;;3.63;1.48;;;16.40;91.20;;;;;;4994316;28;20038;-79
2021/08/19 01:57:17;;;;;;;5.30;2.00;;;16.40;91.20;;;;;;5010561;28;20553;-80
2021/08/19 01:59:43;;;;;;;5.38;2.63;;;16.40;91.30;;;;;;5010447;28;20108;-77
2021/08/19 02:02:08;;;;;;;5.45;2.05;;;16.40;91.30;;;;;;5010387;28;20040;-80
2021/08/19 02:04:34;;;;;;;6.05;2.45;;;16.40;91.30;;;;;;5028135;28;20034;-82
2021/08/19 02:07:00;;;;;;;4.85;1.95;;;16.40;91.40;;;;;;5010283;28;20029;-81
2021/08/19 02:09:26;;;;;;;5.72;2.47;;;16.40;91.40;;;;;;5026618;28;20029;-79
2021/08/19 02:11:52;;;;;;;5.07;2.30;;;16.50;91.50;;;;;;5026827;28;20033;-80
2021/08/19 02:14:18;;;;;;;4.13;2.00;;;16.50;91.50;;;;;;5010220;28;20044;-78
2021/08/19 02:16:43;;;;;;;3.88;1.88;;;16.50;91.70;;;;;;5009284;28;20076;-80
2021/08/19 02:19:09;;;;;;;3.65;1.83;;;16.40;91.90;;;;;;5009921;28;20111;-79
2021/08/19 02:21:35;;;;;;;5.05;2.08;;;16.40;92.10;;;;;;5027644;28;20068;-79
2021/08/19 02:24:01;;;;;;;7.75;2.35;;;16.30;92.20;;;;;;5026289;28;20022;-79
2021/08/19 02:26:26;;;;;;;5.88;2.58;;;16.30;92.40;;;;;;5010220;28;20053;-79
2021/08/19 02:28:52;;;;;;;5.38;2.50;;;16.30;92.60;;;;;;5026375;28;20036;-79
2021/08/19 02:31:18;;;;;;;5.57;2.97;;;16.30;92.90;;;;;;5026349;28;20033;-79
2021/08/19 02:33:43;;;;;;;6.13;2.63;;;16.30;93.00;;;;;;5028004;28;20029;-80
2021/08/19 02:36:09;;;;;;;5.38;2.88;;;16.20;93.10;;;;;;5026460;28;20068;-78
2021/08/19 02:38:35;;;;;;;5.65;2.60;;;16.20;93.30;;;;;;5026241;28;20040;-80
2021/08/19 02:41:00;;;;;;;6.95;3.20;;;16.20;93.50;;;;;;5026231;28;20516;-78
2021/08/19 02:43:26;;;;;;;5.30;2.67;;;16.20;93.60;;;;;;5026387;28;20095;-79
2021/08/19 02:45:52;;;;;;;6.68;3.20;;;16.30;93.70;;;;;;5026071;28;20064;-78
2021/08/19 02:48:17;;;;;;;6.55;3.30;;;16.20;93.70;;;;;;5009648;28;20388;-80
2021/08/19 02:50:43;;;;;;;6.35;3.17;;;16.20;93.80;;;;;;5009810;28;20041;-79
2021/08/19 02:53:09;;;;;;;6.03;3.13;;;16.20;93.80;;;;;;5026340;28;20053;-81
2021/08/19 02:55:35;;;;;;;11.20;3.97;;;16.20;93.90;;;;;;5026171;28;20078;-80
2021/08/19 02:58:00;;;;;;;7.22;2.95;;;16.20;94.00;;;;;;5027224;28;20086;-78
2021/08/19 03:00:26;;;;;;;6.60;3.45;;;16.20;94.20;;;;;;5009768;28;20487;-80
2021/08/19 03:02:52;;;;;;;5.65;3.17;;;16.20;94.30;;;;;;5027432;28;20022;-78
2021/08/19 03:05:18;;;;;;;7.15;3.72;;;16.20;94.30;;;;;;5026089;28;20044;-81
2021/08/19 03:07:44;;;;;;;5.85;3.17;;;16.30;94.50;;;;;;5009688;28;20112;-76
2021/08/19 03:10:09;;;;;;;6.32;3.22;;;16.30;94.60;;;;;;5009771;28;20127;-78
2021/08/19 03:12:35;;;;;;;7.15;3.08;;;16.20;94.70;;;;;;5027338;28;20446;-79
2021/08/19 03:15:01;;;;;;;7.53;3.47;;;16.20;94.70;;;;;;5025916;28;20049;-76
2021/08/19 03:17:28;;;;;;;5.57;3.15;;;16.20;95.00;;;;;;5025997;28;20404;-78
2021/08/19 03:19:54;;;;;;;6.10;3.20;;;16.10;94.90;;;;;;5025864;28;20082;-77
2021/08/19 03:22:21;;;;;;;6.38;3.10;;;16.10;95.20;;;;;;5009586;28;20068;-77
2021/08/19 03:24:46;;;;;;;6.50;3.92;;;16.10;95.10;;;;;;5025890;28;20033;-80
2021/08/19 03:27:13;;;;;;;7.63;3.47;;;16.10;95.20;;;;;;5027223;28;20030;-78
2021/08/19 03:29:39;;;;;;;7.13;3.65;;;16.00;95.30;;;;;;5012241;28;20033;-77
2021/08/19 03:32:06;;;;;;;9.10;4.55;;;15.90;95.40;;;;;;5029776;28;20079;-76
2021/08/19 03:34:32;;;;;;;6.38;3.25;;;15.90;95.60;;;;;;5030816;28;20460;-80
2021/08/19 03:36:57;;;;;;;6.93;3.80;;;15.90;95.60;;;;;;5030938;28;20036;-78
2021/08/19 03:39:23;;;;;;;6.93;3.83;;;15.90;95.80;;;;;;5029720;28;20065;-79
2021/08/19 03:41:50;;;;;;;7.40;4.15;;;15.90;95.80;;;;;;5029530;28;20449;-78
2021/08/19 03:44:16;;;;;;;7.80;3.75;;;15.80;95.90;;;;;;5030692;28;20036;-81
2021/08/19 03:46:42;;;;;;;7.22;3.83;;;15.80;96.00;;;;;;5013110;28;20029;-78
2021/08/19 03:49:08;;;;;;;6.20;3.80;;;15.70;96.10;;;;;;5030550;28;20440;-76
2021/08/19 03:51:35;;;;;;;6.53;3.55;;;15.70;96.30;;;;;;4996533;28;20030;-80
2021/08/19 03:54:00;;;;;;;5.50;3.25;;;15.70;96.50;;;;;;5030511;28;20026;-78
2021/08/19 03:56:31;;;;;;;6.68;3.20;;;15.80;96.60;;;;;;5030611;28;20036;-79
2021/08/19 03:58:56;;;;;;;5.28;3.00;;;15.80;96.60;;;;;;5030159;28;20033;-80
2021/08/19 04:01:23;;;;;;;6.70;3.50;;;15.80;96.60;;;;;;5030247;28;20095;-77
2021/08/19 04:03:49;;;;;;;7.28;3.80;;;15.90;96.70;;;;;;5012685;28;20033;-77
2021/08/19 04:06:15;;;;;;;6.55;3.65;;;15.90;96.60;;;;;;5030376;28;20049;-77
2021/08/19 04:08:41;;;;;;;7.70;3.83;;;16.00;96.60;;;;;;5028908;28;20061;-80
2021/08/19 04:11:06;;;;;;;7.80;4.05;;;16.00;96.60;;;;;;5030329;28;20417;-77
2021/08/19 04:13:33;;;;;;;8.00;4.38;;;16.00;96.60;;;;;;5028897;28;20041;-77
2021/08/19 04:15:58;;;;;;;7.85;3.88;;;16.00;96.70;;;;;;5030125;28;20057;-80
2021/08/19 04:18:24;;;;;;;6.90;3.60;;;16.00;96.60;;;;;;5012097;28;20392;-79
2021/08/19 04:20:50;;;;;;;7.78;3.75;;;16.00;96.60;;;;;;5012544;28;20486;-81
2021/08/19 04:23:15;;;;;;;7.82;4.00;;;16.00;96.60;;;;;;5028822;28;20495;-79
2021/08/19 04:25:42;;;;;;;8.18;3.42;;;16.00;96.60;;;;;;5029967;28;20033;-81
2021/08/19 04:28:08;;;;;;;7.72;3.92;;;16.10;96.80;;;;;;5028758;28;20040;-80
2021/08/19 04:30:34;;;;;;;7.60;3.60;;;16.00;96.90;;;;;;4995905;28;20034;-79
2021/08/19 04:32:59;;;;;;;6.63;3.75;;;16.00;96.90;;;;;;5028478;28;20037;-79
2021/08/19 04:35:30;;;;;;;8.25;4.68;;;16.10;97.00;;;;;;5012001;28;20041;-79
2021/08/19 04:37:56;;;;;;;8.20;3.70;;;16.10;96.90;;;;;;5012429;28;20049;-79
2021/08/19 04:40:21;;;;;;;7.63;3.58;;;16.10;96.90;;;;;;5028814;28;20088;-77
2021/08/19 04:42:47;;;;;;;8.23;3.65;;;16.20;96.90;;;;;;5011837;28;20033;-80
2021/08/19 04:45:13;;;;;;;9.00;3.85;;;16.10;96.90;;;;;;5028256;28;20079;-79
2021/08/19 04:47:38;;;;;;;7.90;4.65;;;16.00;97.00;;;;;;5011792;28;20044;-78
2021/08/19 04:50:04;;;;;;;7.25;3.60;;;16.00;97.00;;;;;;5028093;28;20484;-78
2021/08/19 04:52:30;;;;;;;7.28;3.75;;;16.00;97.20;;;;;;5029417;28;20040;-81
2021/08/19 04:54:56;;;;;;;6.70;3.88;;;16.00;97.20;;;;;;5011778;28;20109;-80
2021/08/19 04:57:21;;;;;;;6.50;3.55;;;16.00;97.30;;;;;;5011567;28;20144;-77
2021/08/19 04:59:47;;;;;;;8.80;4.32;;;16.00;97.40;;;;;;5028341;28;20033;-80
2021/08/19 05:02:13;;;;;;;7.53;3.70;;;16.00;97.30;;;;;;4995214;28;20044;-78
2021/08/19 05:04:38;;;;;;;6.38;3.60;;;16.10;97.30;;;;;;5011519;28;20128;-79
2021/08/19 05:07:04;;;;;;;8.15;3.90;;;16.10;97.20;;;;;;5027958;28;20106;-79
2021/08/19 05:09:30;;;;;;;7.38;3.50;;;16.10;97.20;;;;;;4995156;28;20033;-78
2021/08/19 05:11:55;;;;;;;9.52;4.00;;;16.00;97.30;;;;;;5029157;28;20392;-79
2021/08/19 05:14:22;;;;;;;9.38;4.05;;;15.90;97.40;;;;;;5011569;28;20033;-81
2021/08/19 05:16:47;;;;;;;;;;;15.80;97.50;;;;;;4995331;28;20207;-80
2021/08/19 05:19:13;;;;;;;8.68;4.45;;;15.90;97.50;;;;;;5027528;28;20403;-79
2021/08/19 05:21:40;;;;;;;7.90;3.95;;;15.90;97.30;;;;;;5027753;28;20128;-79
2021/08/19 05:24:05;;;;;;;7.03;4.22;;;16.00;97.50;;;;;;4995172;28;20056;-79
2021/08/19 05:26:31;;;;;;;7.35;3.72;;;16.00;97.60;;;;;;5028723;28;20111;-77
2021/08/19 05:28:57;;;;;;;8.80;4.60;;;16.00;97.60;;;;;;5027772;28;20029;-80
2021/08/19 05:31:23;;;;;;;7.28;3.88;;;16.00;97.60;;;;;;5011113;28;20037;-78
2021/08/19 05:33:49;;;;;;;7.43;3.90;;;16.10;97.60;;;;;;5011032;28;20025;-79
2021/08/19 05:36:15;;;;;;;8.38;4.18;;;16.10;97.60;;;;;;5011082;28;20036;-78
2021/08/19 05:38:41;;;;;;;9.13;4.60;;;16.10;97.60;;;;;;5028391;28;20029;-79
2021/08/19 05:41:07;;;;;;;7.50;4.15;;;16.10;97.70;;;;;;5027053;28;20124;-77
2021/08/19 05:43:33;;;;;;;7.88;3.75;;;16.10;97.80;;;;;;5028400;28;20107;-79
2021/08/19 05:45:59;;;;;;;7.50;4.00;;;16.10;97.90;;;;;;5027201;28;20033;-79
2021/08/19 05:48:25;;;;;;;11.45;4.82;;;16.10;97.90;;;;;;5010466;28;20120;-79
2021/08/19 05:50:51;;;;;;;7.50;4.50;;;16.10;97.90;;;;;;5028442;28;20087;-79
2021/08/19 05:53:17;;;;;;;8.55;4.22;;;16.20;97.90;;;;;;5027098;28;20068;-81
2021/08/19 05:55:43;;;;;;;8.50;4.50;;;16.20;97.80;;;;;;5026887;28;20448;-77
2021/08/19 05:58:13;;;;;;;8.32;4.53;;;16.20;97.80;;;;;;5010154;28;20044;-78
2021/08/19 06:00:38;;;;;;;10.00;4.43;;;16.30;97.80;;;;;;5026669;28;20052;-72
2021/08/19 06:03:04;;;;;;;10.25;4.50;;;16.30;97.70;;;;;;5026656;28;20029;-79
2021/08/19 06:05:30;;;;;;;9.23;4.22;;;16.30;97.70;;;;;;5026508;28;20033;-79
2021/08/19 06:07:56;;;;;;;8.95;4.10;;;16.30;97.80;;;;;;5026638;28;20495;-79
2021/08/19 06:10:21;;;;;;;6.75;3.80;;;16.40;97.80;;;;;;5026542;28;20029;-80
2021/08/19 06:12:47;;;;;;;9.38;3.90;;;16.30;97.80;;;;;;5026627;28;20038;-78
2021/08/19 06:15:13;;;;;;;8.73;3.70;;;16.40;97.80;;;;;;5026599;28;20045;-79
2021/08/19 06:17:38;;;;;;;8.90;3.85;;;16.40;97.90;;;;;;4993415;28;20400;-76
2021/08/19 06:20:06;;;;;;;9.80;4.18;;;16.40;98.00;;;;;;5009909;28;20139;-79
2021/08/19 06:22:31;;;;;;;7.15;3.70;;;16.50;98.00;;;;;;5026299;28;20038;-78
2021/08/19 06:24:57;;;;;;;8.25;4.25;;;16.50;98.00;;;;;;5027672;28;20376;-78
2021/08/19 06:27:23;;;;;;;10.93;3.47;;;16.60;97.90;;;;;;5009515;28;20055;-79
2021/08/19 06:29:49;;;;;;;7.75;3.97;;;16.60;97.80;;;;;;5026074;28;20026;-79
2021/08/19 06:32:15;;;;;;;7.03;4.10;;;16.60;97.80;;;;;;5010168;28;20030;-79
2021/08/19 06:34:40;;;;;;;6.10;3.33;;;16.60;97.80;;;;;;5026522;28;20030;-77
2021/08/19 06:37:06;;;;;;;8.10;4.00;;;16.70;97.80;;;;;;5026443;28;20041;-79
2021/08/19 06:39:32;;;;;;;8.57;4.10;;;16.70;97.80;;;;;;5027691;28;20321;-80
2021/08/19 06:41:58;;;;;;;;;;;16.70;97.70;;;;;;5026826;28;20431;-78
2021/08/19 06:44:23;;;;;;;7.70;4.03;;;16.80;97.70;;;;;;5025890;28;19961;-78
2021/08/19 06:46:49;;;;;;;8.20;4.32;;;16.80;97.50;;;;;;5026131;28;20030;-77
2021/08/19 06:49:15;;;;;;;9.82;5.07;;;16.80;97.60;;;;;;5026004;28;20033;-78
2021/08/19 06:51:40;;;;;;;9.75;5.13;;;16.90;97.70;;;;;;5026043;28;20033;-78
2021/08/19 06:54:06;;;;;;;10.15;4.57;;;17.00;97.70;;;;;;5025989;28;20108;-78
2021/08/19 06:56:32;;;;;;;10.55;5.25;;;17.00;97.70;;;;;;5026111;28;20033;-78
2021/08/19 06:58:58;;;;;;;8.63;4.40;;;17.10;97.70;;;;;;5025750;28;20136;-78
2021/08/19 07:01:23;;;;;;;10.85;4.50;;;17.20;97.70;;;;;;5025925;28;20091;-77
2021/08/19 07:03:49;;;;;;;9.90;4.85;;;17.30;97.50;;;;;;5028748;28;20029;-78
2021/08/19 07:06:15;;;;;;;9.18;4.72;;;17.40;97.40;;;;;;5029886;28;20530;-80
2021/08/19 07:08:41;;;;;;;;;;;17.60;97.40;;;;;;5030288;28;20399;-76
2021/08/19 07:11:08;;;;;;;8.23;4.30;;;17.80;97.30;;;;;;5031259;28;20027;-79
2021/08/19 07:13:33;;;;;;;9.57;4.53;;;17.90;97.20;;;;;;5030959;28;20091;-79
2021/08/19 07:15:59;;;;;;;8.60;4.18;;;18.00;97.10;;;;;;5029613;28;20136;-79
2021/08/19 07:18:25;;;;;;;7.47;4.13;;;18.00;96.90;;;;;;5029678;28;20030;-78
2021/08/19 07:20:51;;;;;;;8.30;4.38;;;18.10;96.80;;;;;;5031256;28;20025;-77
2021/08/19 07:23:16;;;;;;;9.10;4.35;;;18.10;96.60;;;;;;5031020;28;20034;-79
2021/08/19 07:25:42;;;;;;;9.00;5.03;;;18.00;96.60;;;;;;5029667;28;20090;-79
2021/08/19 07:28:08;;;;;;;8.63;5.18;;;17.90;96.80;;;;;;5029426;28;20037;-77
2021/08/19 07:30:34;;;;;;;10.02;4.75;;;17.90;96.90;;;;;;5029258;28;20068;-78
2021/08/19 07:33:00;;;;;;;8.40;4.65;;;17.90;96.90;;;;;;5030902;28;20048;-76
2021/08/19 07:35:25;;;;;;;7.90;4.25;;;17.90;96.90;;;;;;5029383;28;20037;-79
2021/08/19 07:37:54;;;;;;;7.82;4.20;;;18.00;97.00;;;;;;5030925;28;20043;-79
2021/08/19 07:40:25;;;;;;;8.77;4.82;;;18.00;97.00;;;;;;5029396;28;20026;-78
2021/08/19 07:42:51;;;;;;;8.93;4.15;;;18.00;97.10;;;;;;5030547;28;20104;-79
2021/08/19 07:45:18;;;;;;;8.57;3.58;;;18.10;97.10;;;;;;5013143;28;20120;-78
2021/08/19 07:47:44;;;;;;;7.53;3.90;;;18.10;97.00;;;;;;5030610;28;20492;-78
2021/08/19 07:50:11;;;;;;;7.80;4.20;;;18.20;96.90;;;;;;5030065;28;20057;-79
2021/08/19 07:52:38;;;;;;;7.72;3.90;;;18.30;96.80;;;;;;5028819;28;20403;-78
2021/08/19 07:55:06;;;;;;;10.07;4.22;;;18.40;96.70;;;;;;5029295;28;20534;-78
2021/08/19 07:57:46;;;;;;;7.18;4.10;;;18.40;96.60;;;;;;5029633;28;20443;-77
2021/08/19 08:00:13;;;;;;;7.75;4.03;;;18.40;96.50;;;;;;5028828;28;20120;-80
2021/08/19 08:02:39;;;;;;;10.27;4.90;;;18.40;96.50;;;;;;5028671;28;20149;-79
2021/08/19 08:05:06;;;;;;;;;;;18.40;96.50;;;;;;5029296;28;20032;-78
2021/08/19 08:07:32;;;;;;;8.35;4.05;;;18.30;96.50;;;;;;5030005;28;19909;-78
2021/08/19 08:09:58;;;;;;;7.35;4.10;;;18.30;96.50;;;;;;5028505;28;20030;-80
2021/08/19 08:12:23;;;;;;;8.25;4.18;;;18.30;96.60;;;;;;5029758;28;20504;-78
2021/08/19 08:14:50;;;;;;;7.85;4.20;;;18.30;96.80;;;;;;5028197;28;20114;-78
2021/08/19 08:17:19;;;;;;;8.57;4.50;;;18.40;97.00;;;;;;5012104;28;20033;-79
2021/08/19 08:19:48;;;;;;;6.97;4.07;;;18.40;96.90;;;;;;5029588;28;20087;-78
2021/08/19 08:22:15;;;;;;;8.57;3.88;;;18.40;97.00;;;;;;5028556;28;20041;-76
2021/08/19 08:24:41;;;;;;;7.72;4.00;;;18.50;97.00;;;;;;5028519;28;20084;-78
2021/08/19 08:27:07;;;;;;;7.03;3.45;;;18.60;97.00;;;;;;5030099;28;20034;-77
2021/08/19 08:29:32;;;;;;;;;;;18.70;97.00;;;;;;5029434;28;20034;-77
2021/08/19 08:32:04;;;;;;;8.23;4.30;;;18.80;96.90;;;;;;5029790;28;19909;-81
2021/08/19 08:34:30;;;;;;;8.55;4.63;;;19.00;96.90;;;;;;5029675;28;20650;-81
2021/08/19 08:36:56;;;;;;;7.55;4.82;;;19.20;96.90;;;;;;5029409;28;20117;-78
2021/08/19 08:39:22;;;;;;;;;;;19.30;96.60;;;;;;5028122;28;20026;-78
2021/08/19 08:41:48;;;;;;;7.35;4.80;;;19.40;96.30;;;;;;5028194;28;19920;-78
2021/08/19 08:44:14;;;;;;;7.15;4.35;;;19.40;96.20;;;;;;5027916;28;20025;-79
2021/08/19 08:46:40;;;;;;;;;;;19.40;96.20;;;;;;5029846;28;20017;-77
2021/08/19 08:49:07;;;;;;;11.27;5.22;;;19.40;96.20;;;;;;5029450;28;19947;-80
2021/08/19 08:51:37;;;;;;;12.85;5.88;;;19.40;96.10;;;;;;5027675;28;20047;-81
2021/08/19 08:54:03;;;;;;;11.32;5.10;;;19.30;96.20;;;;;;5011161;28;20116;-78
2021/08/19 08:56:29;;;;;;;10.77;5.25;;;19.10;96.20;;;;;;5011297;28;20129;-79
2021/08/19 08:58:55;;;;;;;;;;;19.00;96.30;;;;;;5028542;28;20097;-76
2021/08/19 09:01:21;;;;;;;15.35;8.02;;;18.90;96.30;;;;;;5028943;28;20003;-77
2021/08/19 09:03:47;;;;;;;14.88;8.05;;;18.80;96.30;;;;;;5028906;28;20255;-78
2021/08/19 09:06:17;;;;;;;17.77;8.98;;;18.70;96.50;;;;;;5028885;28;20550;-79
2021/08/19 09:08:51;;;;;;;18.30;10.40;;;18.60;96.70;;;;;;5027361;28;20045;-80
2021/08/19 09:11:17;;;;;;;17.92;11.38;;;18.50;96.90;;;;;;5028460;28;20124;-78
2021/08/19 09:13:43;;;;;;;19.00;11.98;;;18.50;97.00;;;;;;5028385;28;20542;-78
2021/08/19 09:16:18;;;;;;;16.17;10.30;;;18.40;97.20;;;;;;5028267;28;20057;-80
2021/08/19 09:18:44;;;;;;;17.58;10.55;;;18.40;97.40;;;;;;5028027;28;20021;-78
2021/08/19 09:21:21;;;;;;;16.75;9.02;;;18.50;97.50;;;;;;5032478;28;20376;-79
2021/08/19 09:24:06;;;;;;;16.33;10.68;;;18.50;97.70;;;;;;5037344;28;20191;-79
2021/08/19 09:26:32;;;;;;;14.38;8.02;;;18.50;97.70;;;;;;5036119;28;20563;-76
2021/08/19 09:29:17;;;;;;;11.10;7.78;;;18.50;97.70;;;;;;5015968;28;20140;-77
2021/08/19 09:31:43;;;;;;;12.63;8.30;;;18.60;97.80;;;;;;5029537;28;20036;-78
2021/08/19 09:34:10;;;;;;;13.57;7.68;;;18.70;97.80;;;;;;5035001;28;20025;-79
2021/08/19 09:36:36;;;;;;;14.50;8.07;;;18.70;97.70;;;;;;5029666;28;20428;-79
2021/08/19 09:39:05;;;;;;;10.95;7.05;;;18.80;97.80;;;;;;5033081;28;20495;-78
2021/08/19 09:41:31;;;;;;;11.13;6.97;;;19.00;97.80;;;;;;5042876;28;20028;-78
2021/08/19 09:43:58;;;;;;;11.35;7.28;;;19.30;97.90;;;;;;5026458;28;20028;-78
2021/08/19 09:46:37;;;;;;;10.80;7.55;;;19.70;97.70;;;;;;5028962;28;20097;-81
2021/08/19 09:49:24;;;;;;;9.88;6.55;;;20.00;96.90;;;;;;5046074;28;20036;-79
2021/08/19 09:52:13;;;;;;;10.13;6.55;;;20.20;96.50;;;;;;5048484;28;20163;-81
2021/08/19 09:54:42;;;;;;;9.02;5.65;;;20.40;96.30;;;;;;5050121;28;20100;-79
2021/08/19 09:57:10;;;;;;;8.07;5.10;;;20.60;96.00;;;;;;5048317;28;20476;-78
2021/08/19 09:59:39;;;;;;;9.25;6.22;;;20.80;95.60;;;;;;5045956;28;20032;-78
2021/08/19 10:02:07;;;;;;;9.88;5.93;;;20.90;95.30;;;;;;5037919;28;20360;-75
2021/08/19 10:04:34;;;;;;;8.98;5.75;;;20.80;95.20;;;;;;5036471;28;20348;-76
2021/08/19 10:07:00;;;;;;;10.45;6.07;;;20.70;95.00;;;;;;5042691;28;20110;-76
2021/08/19 10:09:26;;;;;;;9.52;6.00;;;20.60;95.10;;;;;;5043710;28;20022;-78
2021/08/19 10:11:53;;;;;;;;;;;20.50;95.40;;;;;;5032609;28;20018;-77
2021/08/19 10:14:24;;;;;;;8.75;5.45;;;20.50;95.20;;;;;;5036352;28;19951;-76
2021/08/19 10:16:53;;;;;;;8.82;5.05;;;20.50;95.20;;;;;;5040666;28;20111;-75
2021/08/19 10:19:35;;;;;;;8.27;5.43;;;20.50;95.20;;;;;;5037952;28;20047;-78
2021/08/19 10:22:11;;;;;;;7.45;4.72;;;20.50;95.20;;;;;;5037469;28;20021;-76
2021/08/19 10:24:40;;;;;;;7.88;4.97;;;20.50;95.40;;;;;;5039109;28;20126;-78
2021/08/19 10:27:20;;;;;;;6.65;4.03;;;20.70;95.40;;;;;;5046708;28;20029;-78
2021/08/19 10:29:49;;;;;;;8.55;4.07;;;21.00;95.30;;;;;;5040956;28;20107;-77
2021/08/19 10:32:22;;;;;;;6.72;4.50;;;21.30;95.20;;;;;;5038398;28;20044;-78
2021/08/19 10:34:57;;;;;;;8.90;4.82;;;21.60;95.00;;;;;;5035969;28;20017;-78
2021/08/19 10:37:47;;;;;;;6.70;4.10;;;22.10;94.80;;;;;;5029684;28;20029;-82
2021/08/19 10:40:22;;;;;;;7.53;4.10;;;22.50;94.10;;;;;;5030788;28;20025;-78
2021/08/19 10:42:53;;;;;;;8.05;3.88;;;22.90;93.80;;;;;;5034890;28;20017;-78
2021/08/19 10:45:39;;;;;;;5.70;3.45;;;23.20;93.50;;;;;;5033117;28;20029;-77
2021/08/19 10:48:08;;;;;;;8.23;3.85;;;23.60;92.50;;;;;;5033938;28;20025;-77
2021/08/19 10:50:35;;;;;;;6.20;3.53;;;23.60;92.10;;;;;;5034102;28;20074;-76
2021/08/19 10:53:22;;;;;;;6.40;3.60;;;23.60;91.70;;;;;;5035683;28;20029;-75
2021/08/19 10:55:53;;;;;;;6.60;4.38;;;23.70;91.70;;;;;;5044572;28;20056;-79
2021/08/19 10:58:35;;;;;;;4.97;3.17;;;24.00;91.60;;;;;;5043956;28;20032;-77
2021/08/19 11:01:29;;;;;;;6.45;4.07;;;24.20;90.80;;;;;;5038679;28;20029;-73
2021/08/19 11:03:57;;;;;;;5.78;3.63;;;24.10;90.60;;;;;;5040214;28;20570;-78
2021/08/19 11:06:44;;;;;;;7.80;3.63;;;24.00;90.60;;;;;;5034831;28;20033;-77
2021/08/19 11:09:13;;;;;;;;;;;24.10;90.20;;;;;;5035601;28;20032;-78
2021/08/19 11:11:39;;;;;;;11.95;6.28;;;24.10;90.20;;;;;;5040449;28;20283;-79
2021/08/19 11:14:08;;;;;;;10.30;5.85;;;24.00;90.10;;;;;;5032779;28;20066;-78
2021/08/19 11:16:39;;;;;;;5.53;2.92;;;24.20;90.10;;;;;;5034220;28;20042;-81
2021/08/19 11:19:20;;;;;;;5.55;2.75;;;24.60;90.10;;;;;;5036624;28;20094;-79
2021/08/19 11:21:57;;;;;;;7.72;3.90;;;25.10;88.70;;;;;;5043802;28;20068;-78
2021/08/19 11:24:25;;;;;;;4.70;2.50;;;25.50;88.60;;;;;;5040318;28;20027;-79
2021/08/19 11:27:03;;;;;;;4.97;2.70;;;25.90;87.30;;;;;;5029063;28;20510;-76
2021/08/19 11:29:38;;;;;;;12.88;6.10;;;26.50;86.40;;;;;;5034399;28;20518;-78
2021/08/19 11:32:06;;;;;;;4.95;2.58;;;26.60;84.50;;;;;;5037337;28;20024;-77
2021/08/19 11:34:32;;;;;;;5.15;3.17;;;26.70;83.20;;;;;;5038432;28;20025;-76
2021/08/19 11:36:57;;;;;;;8.02;2.95;;;26.50;81.60;;;;;;5026485;28;20032;-77
2021/08/19 11:39:27;;;;;;;7.57;4.72;;;26.20;81.20;;;;;;5010195;28;20040;-78
2021/08/19 11:42:01;;;;;;;8.98;3.85;;;26.00;82.20;;;;;;5026054;28;20025;-79
2021/08/19 11:44:27;;;;;;;7.47;3.50;;;26.50;83.00;;;;;;5027268;28;20316;-77
2021/08/19 11:47:12;;;;;;;6.72;3.05;;;27.10;81.90;;;;;;5026158;28;20684;-78
2021/08/19 11:49:39;;;;;;;5.80;2.55;;;27.60;79.50;;;;;;5028581;28;20021;-79
2021/08/19 11:52:11;;;;;;;6.63;3.45;;;27.70;78.20;;;;;;5030489;28;20025;-77
2021/08/19 11:54:46;;;;;;;5.63;2.92;;;27.80;77.70;;;;;;5030320;28;20029;-78
2021/08/19 11:57:23;;;;;;;4.82;2.60;;;28.30;76.70;;;;;;5030796;28;20167;-78
2021/08/19 12:00:06;;;;;;;4.05;1.63;;;28.30;75.10;;;;;;5030050;28;20021;-76
2021/08/19 12:02:32;;;;;;;4.85;2.00;;;28.00;74.30;;;;;;5030761;28;20062;-80
2021/08/19 12:05:09;;;;;;;6.57;3.60;;;27.70;74.40;;;;;;5028623;28;20025;-78
2021/08/19 12:07:41;;;;;;;4.82;2.72;;;27.20;74.10;;;;;;5030903;28;20497;-77
2021/08/19 12:10:08;;;;;;;8.15;4.07;;;26.70;74.40;;;;;;5029910;28;20483;-77
2021/08/19 12:12:37;;;;;;;10.70;5.30;;;26.70;76.30;;;;;;5031494;28;20030;-77
2021/08/19 12:15:08;;;;;;;9.20;3.95;;;27.30;76.50;;;;;;5029100;28;20034;-79
2021/08/19 12:17:34;;;;;;;5.43;3.03;;;28.40;76.40;;;;;;5030368;28;20029;-78
2021/08/19 12:20:19;;;;;;;4.03;2.10;;;29.60;74.80;;;;;;5013132;28;20029;-80
2021/08/19 12:22:45;;;;;;;8.73;3.47;;;30.50;71.70;;;;;;5029803;28;20032;-79
2021/08/19 12:25:22;;;;;;;9.70;5.47;;;30.30;69.50;;;;;;5029506;28;20036;-79
2021/08/19 12:28:07;;;;;;;12.80;4.90;;;29.70;68.00;;;;;;5030274;28;20033;-67
2021/08/19 12:30:34;;;;;;;7.38;3.70;;;28.70;68.40;;;;;;5030801;28;20022;-77
2021/08/19 12:33:01;;;;;;;6.57;4.15;;;28.10;69.20;;;;;;5040499;28;20037;-77
2021/08/19 12:35:27;;;;;;;5.43;2.88;;;27.50;69.70;;;;;;5045138;28;20048;-75
2021/08/19 12:37:58;;;;;;;6.50;3.55;;;27.00;70.20;;;;;;5044161;28;20057;-76
2021/08/19 12:40:41;;;;;;;5.85;3.40;;;26.70;70.90;;;;;;5042845;28;20104;-74
2021/08/19 12:43:10;;;;;;;5.63;2.92;;;26.50;71.70;;;;;;5041839;28;20044;-72
2021/08/19 12:45:37;;;;;;;5.82;3.60;;;26.90;72.80;;;;;;5044633;28;20063;-74
2021/08/19 12:48:04;;;;;;;7.45;3.50;;;27.90;73.50;;;;;;5038452;28;20022;-75
2021/08/19 12:50:30;;;;;;;5.93;3.40;;;28.70;71.40;;;;;;5041689;28;20386;-75
2021/08/19 12:53:07;;;;;;;6.85;2.92;;;29.00;69.90;;;;;;5039749;28;20059;-74